createdAt,value
2023-10-23T00:01:39.967Z,3.92
2023-10-23T00:04:07.713Z,3.67
2023-10-23T00:06:36.940Z,3.55
2023-10-23T00:09:04.209Z,3.90
2023-10-23T00:11:32.290Z,4.10
2023-10-23T00:13:59.676Z,3.67
2023-10-23T00:16:27.399Z,4.13
2023-10-23T00:18:54.257Z,3.72
2023-10-23T00:21:21.227Z,4.22
2023-10-23T00:23:47.967Z,3.70
2023-10-23T00:26:14.648Z,4.10
2023-10-23T00:28:41.320Z,3.88
2023-10-23T00:31:08.245Z,4.60
2023-10-23T00:33:35.168Z,4.38
2023-10-23T00:36:01.971Z,3.95
2023-10-23T00:38:30.145Z,4.47
2023-10-23T00:40:56.888Z,4.10
2023-10-23T00:43:25.788Z,4.25
2023-10-23T00:45:56.622Z,3.92
2023-10-23T00:48:25.230Z,4.38
2023-10-23T00:50:56.082Z,4.20
2023-10-23T00:53:24.333Z,4.68
2023-10-23T00:55:52.912Z,4.35
2023-10-23T00:58:20.080Z,5.82
2023-10-23T01:00:49.956Z,4.97
2023-10-23T01:03:16.821Z,4.90
2023-10-23T01:05:43.958Z,4.50
2023-10-23T01:08:10.831Z,4.45
2023-10-23T01:10:37.723Z,4.57
2023-10-23T01:13:11.268Z,4.63
2023-10-23T01:15:38.307Z,4.80
2023-10-23T01:18:05.762Z,4.57
2023-10-23T01:20:33.274Z,4.00
2023-10-23T01:23:01.503Z,4.63
2023-10-23T01:25:28.809Z,4.03
2023-10-23T01:27:56.333Z,3.85
2023-10-23T01:30:23.320Z,4.40
2023-10-23T01:32:50.140Z,3.72
2023-10-23T01:35:16.896Z,3.78
2023-10-23T01:37:43.608Z,4.25
2023-10-23T01:40:10.971Z,3.78
2023-10-23T01:42:37.975Z,4.10
2023-10-23T01:45:05.185Z,3.50
2023-10-23T01:47:31.918Z,3.78
2023-10-23T01:49:58.680Z,3.80
2023-10-23T01:52:25.370Z,3.80
2023-10-23T01:54:52.907Z,3.67
2023-10-23T01:57:20.205Z,3.80
2023-10-23T01:59:47.109Z,3.40
2023-10-23T02:02:13.777Z,3.90
2023-10-23T02:04:41.272Z,3.92
2023-10-23T02:07:08.220Z,3.70
2023-10-23T02:09:35.053Z,4.35
2023-10-23T02:12:03.051Z,4.25
2023-10-23T02:14:29.868Z,4.15
2023-10-23T02:16:56.520Z,3.97
2023-10-23T02:19:23.279Z,4.15
2023-10-23T02:21:51.075Z,4.30
2023-10-23T02:24:18.892Z,4.07
2023-10-23T02:26:45.704Z,4.82
2023-10-23T02:29:12.460Z,4.47
2023-10-23T02:31:39.653Z,5.18
2023-10-23T02:34:07.340Z,4.47
2023-10-23T02:36:34.951Z,4.32
2023-10-23T02:39:01.735Z,4.50
2023-10-23T02:41:32.043Z,4.55
2023-10-23T02:43:58.960Z,4.40
2023-10-23T02:46:26.337Z,4.50
2023-10-23T02:48:53.280Z,4.95
2023-10-23T02:51:20.149Z,5.30
2023-10-23T02:53:46.948Z,4.85
2023-10-23T02:56:14.095Z,4.90
2023-10-23T02:58:40.852Z,5.60
2023-10-23T03:01:18.329Z,4.65
2023-10-23T03:03:45.320Z,4.25
2023-10-23T03:06:12.790Z,4.80
2023-10-23T03:08:39.489Z,4.30
2023-10-23T03:11:06.840Z,4.60
2023-10-23T03:13:35.338Z,4.43
2023-10-23T03:16:02.279Z,3.95
2023-10-23T03:18:29.285Z,4.63
2023-10-23T03:21:01.313Z,4.70
2023-10-23T03:23:31.974Z,5.00
2023-10-23T03:25:59.436Z,4.25
2023-10-23T03:28:26.196Z,4.15
2023-10-23T03:30:53.079Z,3.70
2023-10-23T03:33:19.945Z,3.75
2023-10-23T03:35:46.745Z,4.20
2023-10-23T03:38:15.080Z,4.15
2023-10-23T03:40:42.194Z,4.30
2023-10-23T03:43:09.535Z,4.15
2023-10-23T03:45:38.409Z,3.88
2023-10-23T03:50:37.930Z,4.38
2023-10-23T03:53:04.603Z,4.72
2023-10-23T03:55:31.335Z,4.50
2023-10-23T03:57:58.160Z,5.45
2023-10-23T04:00:24.843Z,4.63
2023-10-23T04:02:53.545Z,4.60
2023-10-23T04:05:20.244Z,7.00
2023-10-23T04:07:47.129Z,5.55
2023-10-23T04:10:15.394Z,4.80
2023-10-23T04:12:42.211Z,5.15
2023-10-23T04:15:09.144Z,4.65
2023-10-23T04:17:35.832Z,4.63
2023-10-23T04:20:02.666Z,5.28
2023-10-23T04:22:29.368Z,4.93
2023-10-23T04:24:57.334Z,4.90
2023-10-23T04:27:24.143Z,5.30
2023-10-23T04:29:50.879Z,5.40
2023-10-23T04:32:17.644Z,4.97
2023-10-23T04:34:44.354Z,5.55
2023-10-23T04:37:11.136Z,5.00
2023-10-23T04:39:38.153Z,6.32
2023-10-23T04:42:05.332Z,7.00
2023-10-23T04:44:32.259Z,7.30
2023-10-23T04:46:58.945Z,5.90
2023-10-23T04:49:25.601Z,5.45
2023-10-23T04:51:52.593Z,5.63
2023-10-23T04:54:19.297Z,5.25
2023-10-23T04:56:47.032Z,5.40
2023-10-23T04:59:13.685Z,5.60
2023-10-23T05:01:40.428Z,5.53
2023-10-23T05:04:07.554Z,6.18
2023-10-23T05:06:34.386Z,5.80
2023-10-23T05:09:01.086Z,5.90
2023-10-23T05:11:27.841Z,6.50
2023-10-23T05:13:54.552Z,6.28
2023-10-23T05:16:21.372Z,6.18
2023-10-23T05:18:48.944Z,6.60
2023-10-23T05:21:15.940Z,5.97
2023-10-23T05:23:43.183Z,6.30
2023-10-23T05:26:13.096Z,6.45
2023-10-23T05:28:41.693Z,7.05
2023-10-23T05:31:09.998Z,6.30
2023-10-23T05:33:37.199Z,6.18
2023-10-23T05:36:05.344Z,7.00
2023-10-23T05:38:33.120Z,8.25
2023-10-23T05:41:00.547Z,8.77
2023-10-23T05:43:30.652Z,9.07
2023-10-23T05:45:58.254Z,9.70
2023-10-23T05:48:25.508Z,9.25
2023-10-23T05:51:02.411Z,7.45
2023-10-23T05:53:29.428Z,6.60
2023-10-23T05:56:01.134Z,5.68
2023-10-23T05:58:27.802Z,5.25
2023-10-23T06:00:54.770Z,5.57
2023-10-23T06:03:21.533Z,5.57
2023-10-23T06:05:59.437Z,7.20
2023-10-23T06:08:26.119Z,6.00
2023-10-23T06:10:53.281Z,5.47
2023-10-23T06:13:20.040Z,5.25
2023-10-23T06:15:46.828Z,7.25
2023-10-23T06:18:13.658Z,10.55
2023-10-23T06:20:40.408Z,6.63
2023-10-23T06:23:07.130Z,5.22
2023-10-23T06:25:33.813Z,5.30
2023-10-23T06:28:01.187Z,6.72
2023-10-23T06:30:27.987Z,7.85
2023-10-23T06:32:54.773Z,6.93
2023-10-23T06:35:21.922Z,7.80
2023-10-23T06:37:50.046Z,6.90
2023-10-23T06:40:16.826Z,6.78
2023-10-23T06:42:43.580Z,8.90
2023-10-23T06:45:10.368Z,9.15
2023-10-23T06:47:37.118Z,8.38
2023-10-23T06:50:06.431Z,7.05
2023-10-23T06:52:33.828Z,6.75
2023-10-23T06:55:00.846Z,6.85
2023-10-23T06:57:27.708Z,6.88
2023-10-23T06:59:56.231Z,7.22
2023-10-23T07:02:23.509Z,6.80
2023-10-23T07:04:50.319Z,7.22
2023-10-23T07:07:28.647Z,7.72
2023-10-23T07:10:00.573Z,7.22
2023-10-23T07:12:28.263Z,11.57
2023-10-23T07:14:54.954Z,11.65
2023-10-23T07:17:21.887Z,21.95
2023-10-23T07:19:48.553Z,26.05
2023-10-23T07:22:15.260Z,23.48
2023-10-23T07:24:41.948Z,25.05
2023-10-23T07:27:13.162Z,21.75
2023-10-23T07:29:40.621Z,15.70
2023-10-23T07:32:07.611Z,57.13
2023-10-23T07:34:34.602Z,29.05
2023-10-23T07:37:01.494Z,17.27
2023-10-23T07:39:28.214Z,19.67
2023-10-23T07:41:54.858Z,15.90
2023-10-23T07:44:24.288Z,8.13
2023-10-23T07:46:51.225Z,6.85
2023-10-23T07:49:18.114Z,7.55
2023-10-23T07:51:46.132Z,7.18
2023-10-23T07:54:12.890Z,7.57
2023-10-23T07:56:39.568Z,7.57
2023-10-23T07:59:07.498Z,7.43
2023-10-23T08:01:34.213Z,7.23
2023-10-23T08:04:01.091Z,8.00
2023-10-23T08:06:28.025Z,8.07
2023-10-23T08:08:54.875Z,7.68
2023-10-23T08:11:21.556Z,10.13
2023-10-23T08:13:48.415Z,10.57
2023-10-23T08:16:15.418Z,8.98
2023-10-23T08:18:42.986Z,10.88
2023-10-23T08:21:14.603Z,9.43
2023-10-23T08:23:43.077Z,11.00
2023-10-23T08:26:10.066Z,11.20
2023-10-23T08:31:16.737Z,11.80
2023-10-23T08:33:52.354Z,9.80
2023-10-23T08:36:19.188Z,11.85
2023-10-23T08:38:46.042Z,11.27
2023-10-23T08:41:13.899Z,10.98
2023-10-23T08:43:41.440Z,11.07
2023-10-23T08:46:09.768Z,11.40
2023-10-23T08:48:39.450Z,11.35
2023-10-23T08:51:08.613Z,11.60
2023-10-23T08:53:51.955Z,10.25
2023-10-23T08:56:26.244Z,9.52
2023-10-23T08:58:58.701Z,10.27
2023-10-23T09:01:26.222Z,10.27
2023-10-23T09:04:05.338Z,10.45
2023-10-23T09:06:33.626Z,10.02
2023-10-23T09:09:01.123Z,10.23
2023-10-23T09:11:45.435Z,10.00
2023-10-23T09:14:24.924Z,10.27
2023-10-23T09:16:53.242Z,9.95
2023-10-23T09:19:35.751Z,10.55
2023-10-23T09:22:11.750Z,10.07
2023-10-23T09:24:38.686Z,9.73
2023-10-23T09:27:05.746Z,9.52
2023-10-23T09:29:33.176Z,10.50
2023-10-23T09:32:00.680Z,10.20
2023-10-23T09:34:29.447Z,10.13
2023-10-23T09:36:57.200Z,8.38
2023-10-23T09:39:24.320Z,7.90
2023-10-23T09:41:51.864Z,8.15
2023-10-23T09:44:18.786Z,9.52
2023-10-23T09:46:49.367Z,7.72
2023-10-23T09:49:18.237Z,8.38
2023-10-23T09:51:49.466Z,8.27
2023-10-23T09:54:21.664Z,8.07
2023-10-23T09:56:55.608Z,7.28
2023-10-23T09:59:44.033Z,9.07
2023-10-23T10:02:11.848Z,8.50
2023-10-23T10:04:57.626Z,6.93
2023-10-23T10:07:37.416Z,8.27
2023-10-23T10:10:06.986Z,8.05
2023-10-23T10:12:39.830Z,8.60
2023-10-23T10:15:13.312Z,8.65
2023-10-23T10:17:45.099Z,7.95
2023-10-23T10:20:12.660Z,7.63
2023-10-23T10:22:44.370Z,8.52
2023-10-23T10:25:12.887Z,6.95
2023-10-23T10:27:40.280Z,6.40
2023-10-23T10:30:27.413Z,7.20
2023-10-23T10:34:25.152Z,6.20
2023-10-23T10:35:53.845Z,6.55
2023-10-23T10:38:24.862Z,5.75
2023-10-23T10:41:05.162Z,6.28
2023-10-23T10:43:43.123Z,6.53
2023-10-23T10:46:22.741Z,4.72
2023-10-23T10:48:52.724Z,4.60
2023-10-23T10:51:27.410Z,5.07
2023-10-23T10:54:01.896Z,4.90
2023-10-23T10:56:28.687Z,5.13
2023-10-23T10:58:55.965Z,4.80
2023-10-23T11:01:23.751Z,5.15
2023-10-23T11:03:50.687Z,5.20
2023-10-23T11:06:17.725Z,5.55
2023-10-23T11:08:45.264Z,5.45
2023-10-23T11:11:12.320Z,5.72
2023-10-23T11:13:39.196Z,5.80
2023-10-23T11:16:06.067Z,5.72
2023-10-23T11:18:33.141Z,5.85
2023-10-23T11:21:01.483Z,5.68
2023-10-23T11:23:32.052Z,5.95
2023-10-23T11:25:59.116Z,6.40
2023-10-23T11:28:26.416Z,7.35
2023-10-23T11:30:58.600Z,6.40
2023-10-23T11:33:25.451Z,5.57
2023-10-23T11:35:53.970Z,6.38
2023-10-23T11:38:22.861Z,6.80
2023-10-23T11:43:17.354Z,5.80
2023-10-23T11:45:46.726Z,6.10
2023-10-23T11:48:13.878Z,6.88
2023-10-23T11:50:41.919Z,6.20
2023-10-23T11:53:08.824Z,5.88
2023-10-23T11:55:37.599Z,5.97
2023-10-23T12:00:36.286Z,6.22
2023-10-23T12:03:03.550Z,5.72
2023-10-23T12:05:30.318Z,5.40
2023-10-23T12:07:57.765Z,5.80
2023-10-23T12:10:26.484Z,7.03
2023-10-23T12:15:29.605Z,5.63
2023-10-23T12:18:04.892Z,5.10
2023-10-23T12:20:32.760Z,6.15
2023-10-23T12:22:59.668Z,5.17
2023-10-23T12:25:26.388Z,5.00
2023-10-23T12:27:53.342Z,4.90
2023-10-23T12:30:23.854Z,4.10
2023-10-23T12:33:13.204Z,4.07
2023-10-23T12:35:41.699Z,4.53
2023-10-23T12:38:08.810Z,4.25
2023-10-23T12:40:37.315Z,4.40
2023-10-23T12:43:05.521Z,5.05
2023-10-23T12:45:32.838Z,5.60
2023-10-23T12:47:59.858Z,4.43
2023-10-23T12:50:26.588Z,4.05
2023-10-23T12:52:53.503Z,4.20
2023-10-23T12:55:20.222Z,4.28
2023-10-23T12:57:47.545Z,4.10
2023-10-23T13:00:15.267Z,4.30
2023-10-23T13:02:43.572Z,4.60
2023-10-23T13:05:10.961Z,4.32
2023-10-23T13:07:37.926Z,4.60
2023-10-23T13:10:05.342Z,4.45
2023-10-23T13:12:32.090Z,4.10
2023-10-23T13:14:58.769Z,4.25
2023-10-23T13:17:25.703Z,4.35
2023-10-23T13:19:56.128Z,4.22
2023-10-23T13:22:22.906Z,4.63
2023-10-23T13:24:50.127Z,3.90
2023-10-23T13:27:19.746Z,4.43
2023-10-23T13:29:46.413Z,4.03
2023-10-23T13:32:15.331Z,4.25
2023-10-23T13:34:43.342Z,4.30
2023-10-23T13:37:12.014Z,4.57
2023-10-23T13:39:38.770Z,4.10
2023-10-23T13:42:05.711Z,4.63
2023-10-23T13:44:33.590Z,4.05
2023-10-23T13:47:00.756Z,4.10
2023-10-23T13:49:27.532Z,4.13
2023-10-23T13:51:54.321Z,3.80
2023-10-23T13:54:21.024Z,3.60
2023-10-23T13:56:48.503Z,3.95
2023-10-23T13:59:15.416Z,3.90
2023-10-23T14:01:42.157Z,3.38
2023-10-23T14:04:09.015Z,3.60
2023-10-23T14:06:35.834Z,3.30
2023-10-23T14:09:43.476Z,3.63
2023-10-23T14:12:01.447Z,3.40
2023-10-23T14:14:30.378Z,3.50
2023-10-23T14:16:59.032Z,3.38
2023-10-23T14:22:05.587Z,3.38
2023-10-23T14:24:32.292Z,2.90
2023-10-23T14:26:58.969Z,3.53
2023-10-23T14:29:26.135Z,3.90
2023-10-23T14:31:52.983Z,3.92
2023-10-23T14:34:20.295Z,4.88
2023-10-23T14:36:48.706Z,3.80
2023-10-23T14:39:16.823Z,3.72
2023-10-23T14:41:43.534Z,3.60
2023-10-23T14:44:10.218Z,3.65
2023-10-23T14:47:00.321Z,3.72
2023-10-23T14:49:28.065Z,4.60
2023-10-23T14:51:55.250Z,4.65
2023-10-23T14:54:22.041Z,4.82
2023-10-23T14:56:51.247Z,4.47
2023-10-23T14:59:17.984Z,4.72
2023-10-23T15:01:44.879Z,5.07
2023-10-23T15:04:12.608Z,4.80
2023-10-23T15:06:39.400Z,5.03
2023-10-23T15:09:06.938Z,5.20
2023-10-23T15:11:34.241Z,4.75
2023-10-23T15:14:01.067Z,5.18
2023-10-23T15:16:27.938Z,4.80
2023-10-23T15:18:54.880Z,5.07
2023-10-23T15:21:21.624Z,5.65
2023-10-23T15:23:48.728Z,4.88
2023-10-23T15:26:16.191Z,5.57
2023-10-23T15:28:43.711Z,5.45
2023-10-23T15:31:10.690Z,5.20
2023-10-23T15:33:37.913Z,5.00
2023-10-23T15:36:05.916Z,5.38
2023-10-23T15:38:33.414Z,5.37
2023-10-23T15:41:11.507Z,5.15
2023-10-23T15:43:39.996Z,6.53
2023-10-23T15:46:12.690Z,5.85
2023-10-23T15:48:40.257Z,5.60
2023-10-23T15:51:07.018Z,5.80
2023-10-23T15:53:33.854Z,5.70
2023-10-23T15:56:01.897Z,5.88
2023-10-23T15:58:29.982Z,5.50
2023-10-23T16:00:58.157Z,5.95
2023-10-23T16:03:25.272Z,5.60
2023-10-23T16:05:52.294Z,4.82
2023-10-23T16:08:19.212Z,4.90
2023-10-23T16:10:50.354Z,5.55
2023-10-23T16:13:19.063Z,5.38
2023-10-23T16:18:14.450Z,5.80
2023-10-23T16:20:43.572Z,5.85
2023-10-23T16:23:11.994Z,6.85
2023-10-23T16:25:41.547Z,7.88
2023-10-23T16:28:08.963Z,10.10
2023-10-23T16:30:36.250Z,8.32
2023-10-23T16:33:03.392Z,8.15
2023-10-23T16:35:30.333Z,6.55
2023-10-23T16:37:57.108Z,6.38
2023-10-23T16:40:23.857Z,6.78
2023-10-23T16:43:03.039Z,7.35
2023-10-23T16:45:35.302Z,6.28
2023-10-23T16:48:46.746Z,6.00
2023-10-23T16:51:13.634Z,6.00
2023-10-23T16:53:40.393Z,6.45
2023-10-23T16:56:07.467Z,6.85
2023-10-23T16:58:34.321Z,7.57
2023-10-23T17:01:06.768Z,7.70
2023-10-23T17:03:36.435Z,8.95
2023-10-23T17:08:34.062Z,7.82
2023-10-23T17:11:18.953Z,7.07
2023-10-23T17:13:45.643Z,6.78
2023-10-23T17:16:13.980Z,7.28
2023-10-23T17:18:40.711Z,7.30
2023-10-23T17:21:07.450Z,7.78
2023-10-23T17:23:37.172Z,8.32
2023-10-23T17:26:03.902Z,9.48
2023-10-23T17:28:30.753Z,9.20
2023-10-23T17:31:02.510Z,9.68
2023-10-23T17:33:32.068Z,8.73
2023-10-23T17:35:59.234Z,8.73
2023-10-23T17:38:26.652Z,8.77
2023-10-23T17:40:54.115Z,8.77
2023-10-23T17:43:22.858Z,8.80
2023-10-23T17:48:16.576Z,8.10
2023-10-23T17:50:43.430Z,8.88
2023-10-23T17:53:10.134Z,8.13
2023-10-23T17:55:40.637Z,8.60
2023-10-23T17:58:07.962Z,9.60
2023-10-23T18:00:34.708Z,8.63
2023-10-23T18:03:01.643Z,10.48
2023-10-23T18:05:28.390Z,8.90
2023-10-23T18:07:56.941Z,9.05
2023-10-23T18:10:23.995Z,9.05
2023-10-23T18:12:52.223Z,8.85
2023-10-23T18:15:20.918Z,8.93
2023-10-23T18:20:16.062Z,9.20
2023-10-23T18:22:42.790Z,9.23
2023-10-23T18:25:09.819Z,9.00
2023-10-23T18:27:36.743Z,10.00
2023-10-23T18:30:03.978Z,9.55
2023-10-23T18:32:30.849Z,8.98
2023-10-23T18:34:58.594Z,9.48
2023-10-23T18:37:27.824Z,8.80
2023-10-23T18:40:28.409Z,9.20
2023-10-23T18:43:13.872Z,8.82
2023-10-23T18:45:44.970Z,9.73
2023-10-23T18:48:11.858Z,9.60
2023-10-23T18:50:38.610Z,9.68
2023-10-23T18:53:05.351Z,9.40
2023-10-23T18:55:32.052Z,9.77
2023-10-23T18:57:58.845Z,10.60
2023-10-23T19:00:26.312Z,10.20
2023-10-23T19:02:53.169Z,9.88
2023-10-23T19:05:19.943Z,9.35
2023-10-23T19:07:49.737Z,9.38
2023-10-23T19:10:16.915Z,9.45
2023-10-23T19:12:43.700Z,9.48
2023-10-23T19:15:10.664Z,13.15
2023-10-23T19:17:40.976Z,9.52
2023-10-23T19:20:10.224Z,8.75
2023-10-23T19:22:39.591Z,9.10
2023-10-23T19:27:34.635Z,9.50
2023-10-23T19:30:03.357Z,9.80
2023-10-23T19:32:30.430Z,9.50
2023-10-23T19:35:10.793Z,13.63
2023-10-23T19:37:38.626Z,10.95
2023-10-23T19:40:06.159Z,10.10
2023-10-23T19:42:40.418Z,11.48
2023-10-23T19:45:09.247Z,10.98
2023-10-23T19:50:06.102Z,9.65
2023-10-23T19:52:37.618Z,9.77
2023-10-23T19:55:42.861Z,10.40
2023-10-23T19:57:55.539Z,10.65
2023-10-23T20:00:22.385Z,10.38
2023-10-23T20:02:49.254Z,11.40
2023-10-23T20:05:16.009Z,10.65
2023-10-23T20:07:42.749Z,11.15
2023-10-23T20:10:10.040Z,10.73
2023-10-23T20:12:39.300Z,11.10
2023-10-23T20:15:06.758Z,11.23
2023-10-23T20:17:33.487Z,10.63
2023-10-23T20:20:00.247Z,11.50
2023-10-23T20:22:27.220Z,11.27
2023-10-23T20:24:53.983Z,11.27
2023-10-23T20:27:21.072Z,10.40
2023-10-23T20:29:47.924Z,11.30
2023-10-23T20:35:09.686Z,10.48
2023-10-23T20:37:39.315Z,10.50
2023-10-23T20:40:06.918Z,10.77
2023-10-23T20:42:39.286Z,11.93
2023-10-23T20:45:06.929Z,10.77
2023-10-23T20:47:34.763Z,10.93
2023-10-23T20:50:03.939Z,11.93
2023-10-23T20:52:31.870Z,12.35
2023-10-23T20:55:00.255Z,12.00
2023-10-23T20:57:28.361Z,10.70
2023-10-23T20:59:55.099Z,10.90
2023-10-23T21:02:22.025Z,10.32
2023-10-23T21:04:48.814Z,9.90
2023-10-23T21:07:16.950Z,10.93
2023-10-23T21:09:44.117Z,10.43
2023-10-23T21:12:10.799Z,10.27
2023-10-23T21:14:47.117Z,10.70
2023-10-23T21:17:14.895Z,10.73
2023-10-23T21:19:43.176Z,11.55
2023-10-23T21:22:10.273Z,10.52
2023-10-23T21:24:37.085Z,11.90
2023-10-23T21:27:07.480Z,10.90
2023-10-23T21:29:34.191Z,10.52
2023-10-23T21:32:01.965Z,10.57
2023-10-23T21:34:31.640Z,11.00
2023-10-23T21:36:58.366Z,11.50
2023-10-23T21:39:25.046Z,10.57
2023-10-23T21:41:52.025Z,11.40
2023-10-23T21:44:18.862Z,11.48
2023-10-23T21:46:45.708Z,10.82
2023-10-23T21:49:12.673Z,10.45
2023-10-23T21:51:39.968Z,11.27
2023-10-23T21:54:07.264Z,11.27
2023-10-23T21:56:43.374Z,10.75
2023-10-23T21:59:22.836Z,10.25
2023-10-23T22:04:20.696Z,10.50
2023-10-23T22:06:47.930Z,11.32
2023-10-23T22:09:14.863Z,11.07
2023-10-23T22:11:41.910Z,11.43
2023-10-23T22:14:12.091Z,9.98
2023-10-23T22:16:39.010Z,11.45
2023-10-23T22:19:06.509Z,10.70
2023-10-23T22:21:35.697Z,11.00
2023-10-23T22:24:02.533Z,11.45
2023-10-23T22:26:30.774Z,10.98
2023-10-23T22:28:57.517Z,10.65
2023-10-23T22:31:24.265Z,11.57
2023-10-23T22:33:50.991Z,12.02
2023-10-23T22:36:17.767Z,11.77
2023-10-23T22:38:44.666Z,12.68
2023-10-23T22:41:11.434Z,12.75
2023-10-23T22:43:38.185Z,11.60
2023-10-23T22:46:05.000Z,12.57
2023-10-23T22:48:32.302Z,11.85
2023-10-23T22:50:59.351Z,10.90
2023-10-23T22:53:26.578Z,11.18
2023-10-23T22:55:55.236Z,12.05
2023-10-23T23:00:58.822Z,11.18
2023-10-23T23:03:26.381Z,12.30
2023-10-23T23:05:54.306Z,11.45
2023-10-23T23:08:22.134Z,12.30
2023-10-23T23:10:49.113Z,11.93
2023-10-23T23:13:16.152Z,12.60
2023-10-23T23:15:46.686Z,12.45
2023-10-23T23:18:16.071Z,12.48
2023-10-23T23:20:45.754Z,12.55
2023-10-23T23:23:12.428Z,12.70
2023-10-23T23:25:39.225Z,13.02
2023-10-23T23:28:06.065Z,12.23
2023-10-23T23:30:32.958Z,12.00
2023-10-23T23:32:59.604Z,12.52
2023-10-23T23:35:27.468Z,12.77
2023-10-23T23:37:54.130Z,12.63
2023-10-23T23:40:20.853Z,12.07
2023-10-23T23:42:47.551Z,13.02
2023-10-23T23:45:14.421Z,12.77
2023-10-23T23:47:43.742Z,12.52
2023-10-23T23:50:10.531Z,12.82
2023-10-23T23:52:37.237Z,13.68
2023-10-23T23:55:04.287Z,15.25
2023-10-23T23:57:32.200Z,14.85
2023-10-23T23:59:59.155Z,15.97
